createdAt,value
2018-11-11T00:00:18.333Z,82.40
2018-11-11T00:05:20.914Z,82.78
2018-11-11T00:10:23.222Z,82.62
2018-11-11T00:15:25.574Z,82.61
2018-11-11T00:20:27.860Z,82.48
2018-11-11T00:25:30.124Z,81.94
2018-11-11T00:30:32.360Z,82.13
2018-11-11T00:35:34.634Z,82.25
2018-11-11T00:40:37.647Z,82.15
2018-11-11T00:45:39.886Z,82.60
2018-11-11T00:50:42.166Z,82.34
2018-11-11T00:55:44.408Z,82.03
2018-11-11T01:00:46.640Z,82.50
2018-11-11T01:05:48.949Z,82.09
2018-11-11T01:10:51.177Z,82.02
2018-11-11T01:15:53.418Z,82.02
2018-11-11T01:20:55.804Z,82.95
2018-11-11T01:25:58.045Z,81.92
2018-11-11T01:31:00.315Z,82.12
2018-11-11T01:36:02.620Z,82.42
2018-11-11T01:41:05.208Z,82.41
2018-11-11T01:46:07.572Z,82.08
2018-11-11T01:51:09.855Z,82.35
2018-11-11T01:56:12.100Z,82.61
2018-11-11T02:01:14.345Z,82.65
2018-11-11T02:06:16.597Z,83.42
2018-11-11T02:11:18.855Z,84.09
2018-11-11T02:16:21.110Z,83.74
2018-11-11T02:21:23.390Z,84.17
2018-11-11T02:26:25.632Z,84.23
2018-11-11T02:31:27.942Z,84.24
2018-11-11T02:36:30.181Z,84.54
2018-11-11T02:41:32.453Z,84.48
2018-11-11T02:46:34.735Z,85.10
2018-11-11T02:51:37.039Z,85.06
2018-11-11T02:56:39.244Z,85.21
2018-11-11T03:01:41.472Z,86.16
2018-11-11T03:06:43.701Z,85.57
2018-11-11T03:11:45.917Z,86.44
2018-11-11T03:16:48.128Z,87.56
2018-11-11T03:21:50.395Z,87.74
2018-11-11T03:26:52.647Z,87.95
2018-11-11T03:31:54.935Z,88.08
2018-11-11T03:36:57.139Z,88.48
2018-11-11T03:41:59.679Z,88.49
2018-11-11T03:47:01.902Z,89.01
2018-11-11T03:52:04.525Z,88.91
2018-11-11T03:57:06.745Z,89.20
2018-11-11T04:02:09.009Z,89.36
2018-11-11T04:07:11.275Z,89.34
2018-11-11T04:12:13.584Z,89.31
2018-11-11T04:17:15.886Z,90.11
2018-11-11T04:22:19.261Z,90.66
2018-11-11T04:27:21.541Z,89.96
2018-11-11T04:32:23.846Z,90.09
2018-11-11T04:37:26.180Z,90.38
2018-11-11T04:42:28.492Z,90.33
2018-11-11T04:47:30.798Z,90.80
2018-11-11T04:52:33.129Z,90.76
2018-11-11T04:57:35.428Z,91.27
2018-11-11T05:02:37.742Z,91.04
2018-11-11T05:07:40.196Z,90.95
2018-11-11T05:12:42.477Z,90.69
2018-11-11T05:17:44.845Z,90.65
2018-11-11T05:22:47.599Z,91.12
2018-11-11T05:27:49.904Z,91.01
2018-11-11T05:32:52.190Z,91.36
2018-11-11T05:37:55.502Z,91.43
2018-11-11T05:42:58.510Z,91.38
2018-11-11T05:48:00.862Z,90.99
2018-11-11T05:53:03.222Z,91.31
2018-11-11T05:58:05.691Z,91.00
2018-11-11T06:03:07.994Z,90.87
2018-11-11T06:08:10.306Z,91.37
2018-11-11T06:13:12.589Z,91.19
2018-11-11T06:18:14.862Z,91.33
2018-11-11T06:23:17.269Z,90.68
2018-11-11T06:28:19.565Z,90.38
2018-11-11T06:33:21.848Z,90.82
2018-11-11T06:38:24.127Z,91.59
2018-11-11T06:43:26.421Z,91.54
2018-11-11T06:48:28.716Z,90.93
2018-11-11T06:53:31.074Z,90.39
2018-11-11T06:58:33.388Z,90.95
2018-11-11T07:03:51.189Z,90.54
2018-11-11T07:08:53.518Z,90.87
2018-11-11T07:13:55.887Z,90.53
2018-11-11T07:19:00.652Z,90.47
2018-11-11T07:24:03.335Z,89.82
2018-11-11T07:29:06.375Z,89.81
2018-11-11T07:34:08.718Z,90.42
2018-11-11T07:39:12.730Z,89.34
2018-11-11T07:44:15.142Z,88.51
2018-11-11T07:49:17.702Z,89.10
2018-11-11T07:54:20.106Z,88.22
2018-11-11T07:59:22.534Z,88.10
2018-11-11T08:04:24.902Z,88.66
2018-11-11T08:09:27.283Z,88.36
2018-11-11T08:14:29.769Z,89.24
2018-11-11T08:19:32.084Z,89.14
2018-11-11T08:24:34.464Z,88.29
2018-11-11T08:29:36.830Z,87.78
2018-11-11T08:34:40.165Z,88.59
2018-11-11T08:39:42.450Z,88.25
2018-11-11T08:44:44.737Z,87.37
2018-11-11T08:49:47.424Z,87.97
2018-11-11T08:54:49.787Z,87.07
2018-11-11T08:59:52.077Z,88.19
2018-11-11T09:04:54.483Z,88.19
2018-11-11T09:09:56.858Z,88.29
2018-11-11T09:14:59.269Z,88.68
2018-11-11T09:20:01.711Z,88.89
2018-11-11T09:25:04.873Z,89.59
2018-11-11T09:30:09.166Z,89.76
2018-11-11T09:35:11.654Z,89.94
2018-11-11T09:40:14.093Z,89.91
2018-11-11T09:45:16.478Z,90.18
2018-11-11T09:50:18.775Z,90.14
2018-11-11T09:55:21.190Z,90.32
2018-11-11T10:00:23.772Z,90.50
2018-11-11T10:05:31.749Z,90.13
2018-11-11T10:10:42.487Z,90.30
2018-11-11T10:16:53.518Z,89.30
2018-11-11T10:24:04.567Z,88.52
2018-11-11T10:29:13.972Z,88.30
2018-11-11T10:34:21.664Z,89.28
2018-11-11T10:39:30.180Z,88.25
2018-11-11T10:44:41.696Z,87.67
2018-11-11T10:49:54.008Z,87.86
2018-11-11T10:54:56.321Z,86.40
2018-11-11T10:59:58.758Z,85.39
2018-11-11T11:05:06.855Z,85.10
2018-11-11T11:10:09.285Z,85.21
2018-11-11T11:15:11.626Z,84.80
2018-11-11T11:20:14.059Z,82.87
2018-11-11T11:25:16.449Z,83.16
2018-11-11T11:30:18.816Z,81.68
2018-11-11T11:35:21.218Z,79.87
2018-11-11T11:40:23.533Z,79.97
2018-11-11T11:45:25.949Z,81.77
2018-11-11T11:50:28.446Z,79.38
2018-11-11T11:55:30.699Z,79.70
2018-11-11T12:00:33.151Z,78.69
2018-11-11T12:05:35.480Z,78.15
2018-11-11T12:10:37.839Z,78.44
2018-11-11T12:15:40.874Z,78.33
2018-11-11T12:20:43.258Z,76.38
2018-11-11T12:25:45.610Z,75.00
2018-11-11T12:30:48.070Z,74.97
2018-11-11T12:35:50.359Z,72.99
2018-11-11T12:40:52.676Z,73.01
2018-11-11T12:45:55.594Z,73.33
2018-11-11T12:50:58.425Z,72.46
2018-11-11T12:56:00.720Z,73.46
2018-11-11T13:01:03.104Z,71.49
2018-11-11T13:06:05.485Z,71.49
2018-11-11T13:11:08.253Z,72.28
2018-11-11T13:16:10.974Z,71.18
2018-11-11T13:21:14.266Z,70.24
2018-11-11T13:26:17.286Z,70.38
2018-11-11T13:31:19.736Z,70.58
2018-11-11T13:36:22.115Z,68.81
2018-11-11T13:41:25.010Z,70.12
2018-11-11T13:46:29.273Z,70.79
2018-11-11T13:51:31.525Z,72.31
2018-11-11T13:56:33.832Z,72.13
2018-11-11T14:01:37.545Z,70.25
2018-11-11T14:06:39.894Z,70.48
2018-11-11T14:11:42.225Z,71.19
2018-11-11T14:16:44.604Z,69.60
2018-11-11T14:21:47.009Z,70.68
2018-11-11T14:26:49.494Z,71.04
2018-11-11T14:31:51.867Z,70.58
2018-11-11T14:36:54.424Z,71.87
2018-11-11T14:41:56.752Z,72.68
2018-11-11T14:46:59.056Z,74.07
2018-11-11T14:52:01.525Z,74.86
2018-11-11T14:57:03.856Z,75.51
2018-11-11T15:02:06.352Z,75.27
2018-11-11T15:07:09.114Z,76.27
2018-11-11T15:12:11.481Z,76.35
2018-11-11T15:17:13.893Z,76.74
2018-11-11T15:22:16.258Z,77.85
2018-11-11T15:27:18.567Z,77.66
2018-11-11T15:32:21.049Z,78.12
2018-11-11T15:37:23.344Z,79.14
2018-11-11T15:42:25.917Z,79.44
2018-11-11T15:47:28.206Z,79.08
2018-11-11T15:52:30.604Z,78.88
2018-11-11T15:57:32.914Z,79.34
2018-11-11T16:02:35.318Z,79.95
2018-11-11T16:07:38.349Z,80.54
2018-11-11T16:12:40.869Z,80.42
2018-11-11T16:17:44.045Z,80.67
2018-11-11T16:22:47.661Z,81.27
2018-11-11T16:27:50.180Z,81.24
2018-11-11T16:32:53.106Z,81.66
2018-11-11T16:37:55.672Z,82.44
2018-11-11T16:42:58.589Z,82.40
2018-11-11T16:48:01.013Z,82.59
2018-11-11T16:53:05.536Z,82.56
2018-11-11T16:58:07.822Z,83.28
2018-11-11T17:03:10.865Z,83.79
2018-11-11T17:08:13.193Z,84.13
2018-11-11T17:13:15.491Z,84.09
2018-11-11T17:18:17.808Z,84.56
2018-11-11T17:23:20.293Z,84.68
2018-11-11T17:28:23.754Z,84.71
2018-11-11T17:33:26.081Z,84.98
2018-11-11T17:38:28.485Z,85.19
2018-11-11T17:43:31.520Z,84.85
2018-11-11T17:48:33.853Z,85.40
2018-11-11T17:53:36.162Z,85.25
2018-11-11T17:58:38.474Z,85.50
2018-11-11T18:03:40.908Z,85.31
2018-11-11T18:08:43.230Z,85.28
2018-11-11T18:13:45.556Z,85.04
2018-11-11T18:18:47.890Z,85.43
2018-11-11T18:23:50.417Z,85.64
2018-11-11T18:28:52.726Z,85.66
2018-11-11T18:33:55.161Z,85.72
2018-11-11T18:38:57.492Z,85.48
2018-11-11T18:43:59.981Z,85.66
2018-11-11T18:49:02.298Z,85.60
2018-11-11T18:54:04.663Z,85.02
2018-11-11T18:59:07.193Z,85.16
2018-11-11T19:04:09.704Z,85.36
2018-11-11T19:09:14.481Z,85.24
2018-11-11T19:14:16.837Z,85.38
2018-11-11T19:19:19.301Z,85.55
2018-11-11T19:24:21.652Z,85.60
2018-11-11T19:29:24.005Z,85.47
2018-11-11T19:34:26.354Z,85.38
2018-11-11T19:39:28.745Z,85.12
2018-11-11T19:44:31.026Z,85.07
2018-11-11T19:49:33.430Z,85.34
2018-11-11T19:54:35.717Z,85.26
2018-11-11T19:59:38.100Z,85.87
2018-11-11T20:04:40.496Z,85.53
2018-11-11T20:09:42.775Z,85.91
2018-11-11T20:14:45.170Z,86.29
2018-11-11T20:19:47.466Z,86.12
2018-11-11T20:24:49.745Z,87.02
2018-11-11T20:29:52.127Z,86.91
2018-11-11T20:34:54.571Z,86.62
2018-11-11T20:39:57.054Z,87.01
2018-11-11T20:44:59.329Z,86.71
2018-11-11T20:50:01.751Z,87.22
2018-11-11T20:55:05.336Z,86.58
2018-11-11T21:00:09.677Z,87.03
2018-11-11T21:05:13.434Z,86.68
2018-11-11T21:10:20.177Z,86.92
2018-11-11T21:15:23.726Z,86.19
2018-11-11T21:20:27.406Z,85.61
2018-11-11T21:25:29.799Z,86.21
2018-11-11T21:30:32.656Z,86.48
2018-11-11T21:35:35.050Z,86.05
2018-11-11T21:40:37.345Z,85.60
2018-11-11T21:45:39.758Z,85.79
2018-11-11T21:50:42.061Z,85.98
2018-11-11T21:55:44.351Z,85.56
2018-11-11T22:00:46.701Z,85.36
2018-11-11T22:05:49.084Z,85.93
2018-11-11T22:10:51.946Z,85.85
2018-11-11T22:15:54.268Z,85.84
2018-11-11T22:20:56.576Z,85.30
2018-11-11T22:25:58.950Z,85.77
2018-11-11T22:31:01.241Z,85.36
2018-11-11T22:36:03.622Z,86.14
2018-11-11T22:41:05.921Z,86.44
2018-11-11T22:46:08.294Z,86.23
2018-11-11T22:51:10.609Z,86.57
2018-11-11T22:56:12.925Z,86.53
2018-11-11T23:01:21.219Z,86.84
2018-11-11T23:06:23.628Z,87.07
2018-11-11T23:11:25.981Z,87.16
2018-11-11T23:16:28.266Z,87.02
2018-11-11T23:21:30.576Z,86.99
2018-11-11T23:26:32.893Z,87.57
2018-11-11T23:31:35.222Z,87.54
2018-11-11T23:36:37.685Z,87.45
2018-11-11T23:41:39.990Z,87.39
2018-11-11T23:46:42.390Z,87.18
2018-11-11T23:51:44.684Z,86.69
2018-11-11T23:56:46.986Z,86.58
